Time;durP1;ratioP1;P1;durP2;ratioP2;P2;SDS_P1;SDS_P2;PMS_P1;PMS_P2;Temp;Humidity;BMP_temperature;BMP_pressure;BME280_temperature;BME280_humidity;BME280_pressure;Samples;Min_cycle;Max_cycle;Signal;HPM_P1;HPM_P2
2023/10/25 00:00:42;;;;;;;68.53;24.95;;;12.90;99.90;;;11.84;100.00;99831.19;6082576;23;20022;-84
2023/10/25 00:03:10;;;;;;;57.40;24.60;;;12.90;99.90;;;11.83;100.00;99832.97;6093457;23;20033;-81
2023/10/25 00:05:36;;;;;;;53.20;23.02;;;12.90;99.90;;;11.86;100.00;99831.94;6125237;23;20028;-83
2023/10/25 00:08:01;;;;;;;43.17;20.98;;;12.90;99.90;;;11.86;100.00;99827.50;6045742;23;20360;-83
2023/10/25 00:10:27;;;;;;;47.30;22.85;;;13.00;99.90;;;11.90;100.00;99830.84;6034600;23;20027;-81
2023/10/25 00:12:58;;;;;;;60.92;21.25;;;13.00;99.90;;;11.92;100.00;99836.81;6010659;23;20017;-83
2023/10/25 00:15:26;;;;;;;52.97;22.05;;;13.00;99.90;;;11.92;100.00;99835.97;6064836;23;20014;-83
2023/10/25 00:17:52;;;;;;;151.90;27.33;;;13.00;99.90;;;11.91;100.00;99840.41;6069083;23;20036;-83
2023/10/25 00:20:18;;;;;;;80.55;25.85;;;13.00;99.90;;;11.90;100.00;99836.09;6036651;23;20009;-83
2023/10/25 00:22:44;;;;;;;133.93;26.85;;;12.90;99.90;;;11.90;100.00;99839.59;6072644;23;20275;-83
2023/10/25 00:25:14;;;;;;;117.13;26.00;;;13.00;99.90;;;11.88;100.00;99843.28;6032558;23;20430;-82
2023/10/25 00:27:40;;;;;;;99.18;24.67;;;13.00;99.90;;;11.86;100.00;99842.50;6050054;23;20008;-82
2023/10/25 00:30:06;;;;;;;92.45;24.63;;;12.90;99.90;;;11.85;100.00;99846.91;6041484;23;20727;-81
2023/10/25 00:32:32;;;;;;;95.35;25.48;;;12.90;99.90;;;11.82;100.00;99846.28;6020989;23;20013;-82
2023/10/25 00:34:58;;;;;;;76.22;25.65;;;12.90;99.90;;;11.80;100.00;99843.75;6071417;23;20028;-82
2023/10/25 00:37:24;;;;;;;102.63;25.00;;;12.90;99.90;;;11.79;100.00;99841.19;6036792;23;20430;-80
2023/10/25 00:39:50;;;;;;;69.00;25.98;;;12.90;99.90;;;11.80;100.00;99842.91;6070376;23;20085;-82
2023/10/25 00:42:18;;;;;;;136.18;30.08;;;12.90;99.90;;;11.82;100.00;99841.00;6063182;23;20060;-82
2023/10/25 00:44:46;;;;;;;105.97;27.02;;;12.90;99.90;;;11.81;100.00;99845.41;6085382;23;20144;-83
2023/10/25 00:47:12;;;;;;;86.28;26.40;;;12.90;99.90;;;11.79;100.00;99841.19;6089104;23;20096;-82
2023/10/25 00:49:38;;;;;;;61.35;24.05;;;12.90;99.90;;;11.76;100.00;99839.59;6099192;23;20016;-83
2023/10/25 00:52:11;;;;;;;119.13;27.60;;;12.90;99.90;;;11.77;100.00;99837.81;6103376;23;20083;-83
2023/10/25 00:54:37;;;;;;;99.57;25.77;;;12.80;99.90;;;11.76;100.00;99844.88;6068565;23;20014;-82
2023/10/25 00:57:03;;;;;;;120.55;26.80;;;12.80;99.90;;;11.76;100.00;99849.31;6079018;23;20020;-83
2023/10/25 00:59:31;;;;;;;163.68;28.20;;;12.80;99.90;;;11.75;100.00;99842.34;6066408;23;20032;-83
2023/10/25 01:02:02;;;;;;;98.22;25.80;;;12.80;99.90;;;11.75;100.00;99837.06;6045795;23;20041;-83
2023/10/25 01:04:29;;;;;;;277.10;30.63;;;12.80;99.90;;;11.72;100.00;99832.84;6023770;23;20022;-82
2023/10/25 01:06:55;;;;;;;161.75;29.52;;;12.80;99.90;;;11.72;100.00;99830.19;6032906;23;20009;-83
2023/10/25 01:09:21;;;;;;;178.50;29.15;;;12.80;99.90;;;11.70;100.00;99832.97;6087508;23;20044;-81
2023/10/25 01:11:47;;;;;;;116.00;26.27;;;12.80;99.90;;;11.70;100.00;99846.16;6040266;23;20390;-83
2023/10/25 01:14:21;;;;;;;102.75;25.42;;;12.80;99.90;;;11.68;100.00;99834.84;5973934;23;20030;-82
2023/10/25 01:16:47;;;;;;;103.07;26.40;;;12.80;99.90;;;11.70;100.00;99840.88;6053807;23;20048;-83
2023/10/25 01:19:12;;;;;;;85.63;24.58;;;12.80;99.90;;;11.70;100.00;99835.59;6049120;23;20014;-82
2023/10/25 01:21:42;;;;;;;113.25;26.38;;;12.80;99.90;;;11.70;100.00;99826.81;6032461;23;20061;-83
2023/10/25 01:24:11;;;;;;;144.57;27.48;;;12.70;99.90;;;11.68;100.00;99837.50;6042190;23;20434;-83
2023/10/25 01:26:40;;;;;;;102.03;26.58;;;12.80;99.90;;;11.68;100.00;99833.97;6067105;23;20013;-83
2023/10/25 01:29:05;;;;;;;112.47;26.08;;;12.80;99.90;;;11.67;100.00;99837.59;6071029;23;20027;-83
2023/10/25 01:31:31;;;;;;;102.05;25.55;;;12.70;99.90;;;11.64;100.00;99837.75;6057281;23;20017;-83
2023/10/25 01:34:04;;;;;;;87.28;24.67;;;12.70;99.90;;;11.59;100.00;99827.50;6087754;23;20021;-83
2023/10/25 01:36:30;;;;;;;94.85;25.50;;;12.70;99.90;;;11.58;100.00;99840.81;6029583;23;20005;-83
2023/10/25 01:38:55;;;;;;;98.55;25.58;;;12.70;99.90;;;11.56;100.00;99835.63;6057736;23;20353;-83
2023/10/25 01:41:21;;;;;;;90.72;26.02;;;12.70;99.90;;;11.55;100.00;99833.94;6025465;23;20076;-83
2023/10/25 01:43:56;;;;;;;166.55;27.48;;;12.70;99.90;;;11.55;100.00;99833.94;6054461;23;20021;-82
2023/10/25 01:46:22;;;;;;;100.35;27.15;;;12.70;99.90;;;11.56;100.00;99829.53;6033605;23;20027;-83
2023/10/25 01:48:47;;;;;;;82.63;26.73;;;12.70;99.90;;;11.56;100.00;99830.38;6013689;23;20623;-83
2023/10/25 01:51:13;;;;;;;52.45;22.55;;;12.70;99.90;;;11.58;100.00;99828.47;6064600;23;20021;-83
2023/10/25 01:53:39;;;;;;;63.65;24.33;;;12.70;99.90;;;11.60;100.00;99821.31;6020675;23;20018;-84
2023/10/25 01:56:04;;;;;;;86.80;26.35;;;12.70;99.90;;;11.61;100.00;99817.72;6040948;23;20033;-83
2023/10/25 01:58:50;;;;;;;68.40;25.88;;;12.70;99.90;;;11.67;100.00;99827.03;6054054;23;20056;-83
2023/10/25 02:01:16;;;;;;;71.05;25.80;;;14.00;99.90;;;11.64;100.00;99817.53;6089858;23;20346;-82
2023/10/25 02:03:41;;;;;;;84.15;24.98;;;12.70;99.90;;;11.65;100.00;99829.75;6080043;23;20018;-83
2023/10/25 02:06:12;;;;;;;135.80;28.98;;;12.70;99.90;;;11.65;100.00;99831.56;6075737;23;20013;-84
2023/10/25 02:08:47;;;;;;;82.13;27.95;;;12.70;99.90;;;11.63;100.00;99826.38;6027061;23;20014;-83
2023/10/25 02:11:13;;;;;;;96.00;26.52;;;12.70;99.90;;;11.62;100.00;99843.16;5999012;23;20096;-83
2023/10/25 02:13:39;;;;;;;109.03;27.40;;;;;;;11.59;100.00;99835.44;6062882;23;20115;-83
2023/10/25 02:16:18;;;;;;;117.63;28.42;;;12.70;99.90;;;11.57;100.00;99837.31;6049490;23;20017;-84
2023/10/25 02:18:51;;;;;;;101.15;27.58;;;12.60;99.90;;;11.50;100.00;99836.03;6046611;23;20040;-82
2023/10/25 02:21:20;;;;;;;93.45;27.42;;;12.60;99.90;;;11.47;100.00;99830.97;6021534;23;20111;-84
2023/10/25 02:23:46;;;;;;;99.45;26.80;;;12.60;99.90;;;11.46;100.00;99821.34;5999860;23;20022;-83
2023/10/25 02:26:11;;;;;;;99.80;28.02;;;12.60;99.90;;;11.46;100.00;99826.63;6029967;23;20621;-83
2023/10/25 02:28:43;;;;;;;98.30;26.48;;;12.60;99.90;;;11.42;100.00;99833.88;6087069;23;20024;-83
2023/10/25 02:31:08;;;;;;;116.18;27.45;;;12.50;99.90;;;11.43;100.00;99826.84;6073566;23;20097;-83
2023/10/25 02:33:34;;;;;;;120.40;28.50;;;12.50;99.90;;;11.40;100.00;99817.34;6025689;23;20034;-84
2023/10/25 02:36:00;;;;;;;126.72;28.52;;;12.50;99.90;;;11.37;100.00;99819.31;6011386;23;20446;-83
2023/10/25 02:38:25;;;;;;;126.15;28.50;;;12.50;99.90;;;11.34;100.00;99823.00;6034608;23;20038;-83
2023/10/25 02:40:51;;;;;;;88.05;25.92;;;12.50;99.90;;;11.34;100.00;99816.88;6002711;23;20013;-83
2023/10/25 02:43:40;;;;;;;127.00;28.42;;;12.40;99.90;;;11.34;100.00;99824.78;6065514;23;20496;-84
2023/10/25 02:46:09;;;;;;;139.10;28.83;;;12.40;99.90;;;11.32;100.00;99813.47;6020279;23;20116;-83
2023/10/25 02:48:43;;;;;;;137.15;30.35;;;12.40;99.90;;;11.31;100.00;99817.91;6076742;23;20461;-83
2023/10/25 02:51:09;;;;;;;168.98;30.58;;;12.40;99.90;;;11.31;100.00;99819.72;6026684;23;20041;-83
2023/10/25 02:53:53;;;;;;;194.63;31.40;;;;;;;11.32;100.00;99822.25;6107134;23;20402;-87
2023/10/25 02:56:34;;;;;;;173.18;29.38;;;;;;;11.32;100.00;99827.53;5837153;23;20364;-86
2023/10/25 02:59:12;;;;;;;179.50;32.47;;;;;;;11.27;100.00;99824.31;5988313;23;20016;-86
2023/10/25 03:05:22;;;;;;;127.13;29.77;;;12.40;99.90;;;11.18;100.00;99820.47;5842057;24;20516;-87
2023/10/25 03:08:03;;;;;;;153.80;32.05;;;12.40;99.90;;;11.19;100.00;99826.63;5823568;24;20021;-87
2023/10/25 03:11:10;;;;;;;177.50;32.47;;;;;;;11.14;100.00;99824.25;5804784;24;20109;-87
2023/10/25 03:13:35;;;;;;;158.88;31.77;;;12.30;99.90;;;11.15;100.00;99825.13;5834599;24;20025;-87
2023/10/25 03:16:02;;;;;;;131.32;30.35;;;;;;;11.05;100.00;99820.41;5906299;24;20144;-86
2023/10/25 03:22:24;;;;;;;137.65;30.98;;;;;;;11.05;100.00;99811.66;5947851;23;21656;-86
2023/10/25 03:24:50;;;;;;;136.18;32.28;;;;;;;11.01;100.00;99818.06;5952924;23;20079;-86
2023/10/25 03:31:13;;;;;;;181.00;33.13;;;12.20;99.90;;;10.97;100.00;99803.41;6013379;23;20034;-87
2023/10/25 03:33:39;;;;;;;99.07;30.10;;;;;;;10.90;100.00;99804.72;5873403;24;20025;-86
2023/10/25 03:36:43;;;;;;;112.15;32.88;;;;;;;10.94;100.00;99808.88;5836198;24;20013;-86
2023/10/25 03:39:43;;;;;;;111.68;31.80;;;12.10;99.90;;;10.89;100.00;99814.44;5836809;24;20026;-86
2023/10/25 03:42:37;;;;;;;;;;;;;;;;;;;;;
2023/10/25 03:45:06;;;;;;;97.28;30.30;;;12.10;99.90;;;10.82;100.00;99821.00;6032431;23;21653;-87
2023/10/25 03:47:41;;;;;;;105.20;30.40;;;;;;;10.82;100.00;99819.25;6084258;23;20052;-87
2023/10/25 03:50:53;;;;;;;103.83;29.90;;;12.00;99.90;;;10.83;100.00;99813.00;6084050;23;20438;-87
2023/10/25 03:53:34;;;;;;;102.45;30.17;;;;;;;10.88;100.00;99821.50;6019010;23;20034;-87
2023/10/25 03:59:42;;;;;;;109.43;31.83;;;;;;;10.95;100.00;99816.69;5902071;24;20199;-87
2023/10/25 04:02:22;;;;;;;108.90;32.60;;;12.10;99.90;;;10.97;100.00;99816.56;5812571;24;20025;-87
2023/10/25 04:04:50;;;;;;;107.72;32.35;;;12.10;99.90;;;11.02;100.00;99827.69;5807402;24;20089;-87
2023/10/25 04:07:16;;;;;;;96.40;32.78;;;;;;;11.02;100.00;99819.78;5760152;24;20014;-87
2023/10/25 04:10:23;;;;;;;95.00;30.95;;;;;;;11.04;100.00;99823.16;5853511;24;20076;-87
2023/10/25 04:12:52;;;;;;;87.35;30.75;;;;;;;11.03;100.00;99818.81;5841978;24;20022;-87
2023/10/25 04:15:41;;;;;;;89.07;29.77;;;12.20;99.90;;;10.99;100.00;99817.31;5834643;24;20013;-88
2023/10/25 04:18:42;;;;;;;84.40;29.23;;;;;;;10.99;100.00;99812.91;5865848;24;20033;-87
2023/10/25 04:21:52;;;;;;;88.32;29.25;;;;;;;11.00;100.00;99811.13;5796459;24;20017;-87
2023/10/25 04:24:34;;;;;;;87.10;29.77;;;;;;;11.00;100.00;99816.38;5800346;24;20025;-88
2023/10/25 04:27:13;;;;;;;93.40;30.30;;;12.20;99.90;;;11.00;100.00;99816.38;5782175;24;20453;-88
2023/10/25 04:29:39;;;;;;;92.22;30.95;;;;;;;11.02;100.00;99814.50;5758537;24;20559;-87
2023/10/25 04:32:31;;;;;;;109.65;33.50;;;12.10;99.90;;;11.02;100.00;99815.34;5807433;24;20081;-87
2023/10/25 04:35:32;;;;;;;91.80;31.73;;;12.10;99.90;;;10.98;100.00;99800.69;5764860;24;20025;-88
2023/10/25 04:38:23;;;;;;;84.50;31.23;;;12.10;99.90;;;10.99;100.00;99804.16;5715305;24;20018;-87
2023/10/25 04:41:02;;;;;;;80.38;30.27;;;;;;;10.98;100.00;99795.41;5823227;24;20041;-87
2023/10/25 04:43:45;;;;;;;76.63;30.17;;;12.10;99.90;;;10.94;100.00;99798.34;5819518;24;20021;-87
2023/10/25 04:46:23;;;;;;;73.57;28.90;;;12.10;99.90;;;10.93;100.00;99800.13;5830236;24;20120;-88
2023/10/25 04:48:52;;;;;;;79.72;30.20;;;;;;;10.94;100.00;99803.59;5812089;24;20050;-87
2023/10/25 04:51:30;;;;;;;78.50;30.75;;;;;;;10.92;100.00;99803.69;5818738;24;20456;-88
2023/10/25 04:54:22;;;;;;;70.35;29.95;;;12.10;99.90;;;10.89;100.00;99798.63;5811890;24;20025;-87
2023/10/25 04:57:06;;;;;;;66.53;28.20;;;;;;;10.88;100.00;99797.78;5832195;24;20026;-87
2023/10/25 05:02:53;;;;;;;63.65;27.38;;;;;;;10.82;100.00;99803.44;5831636;24;20161;-87
2023/10/25 05:05:23;;;;;;;55.25;27.00;;;;;;;10.82;100.00;99808.69;5832809;24;20130;-87
2023/10/25 05:08:31;;;;;;;49.70;25.42;;;;;;;10.81;100.00;99807.00;5783075;24;20023;-87
2023/10/25 05:14:36;;;;;;;;;;;;;;;;;;;;;
2023/10/25 05:17:23;;;;;;;57.67;27.77;;;12.00;99.90;;;10.83;100.00;99812.16;5763049;24;20601;-87
2023/10/25 05:20:50;;;;;;;54.33;25.55;;;12.00;99.90;;;10.82;100.00;99813.97;5769962;24;20018;-87
2023/10/25 05:24:02;;;;;;;51.88;27.15;;;;;;;10.81;100.00;99816.69;5684755;24;20024;-87
2023/10/25 05:29:23;;;;;;;50.85;27.23;;;11.90;99.90;;;10.81;100.00;99814.91;5767908;24;20490;-88
2023/10/25 05:35:14;;;;;;;57.65;29.80;;;;;;;10.84;100.00;99820.00;5762507;24;20061;-88
2023/10/25 05:37:40;;;;;;;63.00;32.15;;;12.00;99.90;;;10.84;100.00;99821.75;5741117;24;20019;-87
2023/10/25 05:40:53;;;;;;;60.25;30.42;;;12.00;99.90;;;10.85;100.00;99824.28;5727593;24;20039;-87
2023/10/25 05:43:43;;;;;;;49.88;28.55;;;;;;;10.84;100.00;99817.34;5802201;24;20698;-87
2023/10/25 05:46:12;;;;;;;51.72;28.52;;;11.90;99.90;;;10.81;100.00;99816.69;5845906;24;20022;-87
2023/10/25 05:49:04;;;;;;;51.75;27.35;;;11.90;99.90;;;10.78;100.00;99817.72;5842721;24;20063;-87
2023/10/25 05:51:42;;;;;;;59.22;29.55;;;;;;;10.78;100.00;99814.25;5867722;24;20103;-87
2023/10/25 05:54:12;;;;;;;52.22;28.63;;;;;;;10.79;100.00;99815.94;5828504;24;20028;-87
2023/10/25 05:59:42;;;;;;;46.65;26.83;;;11.80;99.90;;;10.72;100.00;99825.16;5921222;23;20016;-87
2023/10/25 06:02:55;;;;;;;43.05;26.58;;;11.90;99.90;;;10.71;100.00;99829.56;5925171;23;20020;-87
2023/10/25 06:05:24;;;;;;;36.22;22.52;;;;;;;10.67;100.00;99823.66;5924868;23;20046;-87
2023/10/25 06:08:03;;;;;;;33.33;21.20;;;;;;;10.65;100.00;99824.69;5925405;23;20020;-88
2023/10/25 06:10:42;;;;;;;38.67;22.45;;;11.80;99.90;;;10.68;100.00;99829.75;5932872;23;20041;-87
2023/10/25 06:15:44;;;;;;;41.45;23.88;;;11.90;99.90;;;10.74;100.00;99825.91;6081707;23;20018;-87
2023/10/25 06:18:41;;;;;;;40.17;24.23;;;11.90;99.90;;;10.79;100.00;99829.94;6124557;23;20017;-87
2023/10/25 06:21:52;;;;;;;39.45;24.05;;;11.90;99.90;;;10.82;100.00;99829.78;6112542;23;20033;-88
2023/10/25 06:25:04;;;;;;;44.05;24.20;;;;;;;10.84;100.00;99827.88;6054933;23;20033;-87
2023/10/25 06:27:31;;;;;;;39.72;23.30;;;;;;;10.86;100.00;99827.78;5925408;23;20446;-87
2023/10/25 06:30:06;;;;;;;46.53;25.02;;;;;;;10.87;100.00;99832.94;5908504;23;20020;-87
2023/10/25 06:32:33;;;;;;;44.78;24.30;;;;;;;10.91;100.00;99838.00;5924659;23;20012;-87
2023/10/25 06:34:59;;;;;;;44.75;25.35;;;;;;;10.93;100.00;99836.13;6062662;23;20021;-87
2023/10/25 06:38:22;;;;;;;53.95;26.92;;;12.00;99.90;;;10.95;100.00;99836.88;6140550;23;20021;-87
2023/10/25 06:40:51;;;;;;;48.72;25.83;;;12.10;99.90;;;10.95;100.00;99839.53;5949205;23;20533;-87
2023/10/25 06:43:43;;;;;;;55.20;27.35;;;12.10;99.90;;;10.97;100.00;99846.41;5983625;23;20017;-86
2023/10/25 06:46:12;;;;;;;54.65;29.13;;;12.10;99.90;;;10.91;100.00;99833.63;5870973;23;20017;-87
2023/10/25 06:48:52;;;;;;;52.80;27.48;;;;;;;10.91;100.00;99832.75;5851501;24;20072;-87
2023/10/25 06:51:56;;;;;;;52.55;27.83;;;12.10;99.90;;;10.88;100.00;99826.75;5880087;23;20017;-87
2023/10/25 06:54:22;;;;;;;58.00;28.85;;;12.00;99.90;;;10.91;100.00;99828.34;6008179;23;20552;-87
2023/10/25 06:57:01;;;;;;;52.53;27.80;;;;;;;10.91;100.00;99832.75;5984908;23;20022;-87
2023/10/25 06:59:47;;;;;;;53.28;28.77;;;12.10;99.90;;;10.86;100.00;99830.41;6013592;23;20383;-87
2023/10/25 07:03:36;;;;;;;;;;;;;;;;;;;;;
2023/10/25 07:06:11;;;;;;;56.50;29.38;;;;;;;10.85;100.00;99829.56;5884003;24;20646;-88
2023/10/25 07:09:03;;;;;;;52.63;27.23;;;12.10;99.90;;;10.87;100.00;99840.84;5887289;23;20012;-88
2023/10/25 07:11:32;;;;;;;53.42;28.80;;;;;;;10.86;100.00;99828.63;5872451;24;20103;-87
2023/10/25 07:14:11;;;;;;;49.70;28.05;;;;;;;10.88;100.00;99836.41;5921310;23;20027;-88
2023/10/25 07:16:52;;;;;;;44.78;26.48;;;12.10;99.90;;;10.90;100.00;99836.34;5990788;23;20022;-88
2023/10/25 07:19:24;;;;;;;45.35;26.77;;;;;;;10.90;100.00;99838.97;6003997;23;20022;-88
2023/10/25 07:22:53;;;;;;;49.92;27.63;;;12.10;99.90;;;10.98;100.00;99841.97;6063018;23;20018;-87
2023/10/25 07:25:22;;;;;;;51.50;27.80;;;;;;;11.03;100.00;99840.72;5990474;23;20074;-87
2023/10/25 07:31:32;;;;;;;49.50;26.02;;;;;;;11.08;100.00;99840.47;5770479;24;20019;-87
2023/10/25 07:34:22;;;;;;;46.78;26.25;;;;;;;11.09;100.00;99848.25;5898103;23;20044;-87
2023/10/25 07:37:32;;;;;;;46.97;26.92;;;12.20;99.90;;;11.13;100.00;99837.53;6027103;23;20022;-87
2023/10/25 07:40:13;;;;;;;53.33;28.55;;;;;;;11.18;100.00;99838.09;5950906;23;20014;-85
2023/10/25 07:43:14;;;;;;;42.60;25.35;;;12.30;99.90;;;11.20;100.00;99834.41;6054098;23;20021;-87
2023/10/25 07:46:26;;;;;;;48.67;27.63;;;12.30;99.90;;;11.19;100.00;99840.63;5906595;23;20184;-88
2023/10/25 07:49:05;;;;;;;47.40;26.33;;;;;;;11.28;100.00;99839.19;5911105;23;20095;-87
2023/10/25 07:52:04;;;;;;;52.58;27.13;;;;;;;11.32;100.00;99853.00;5959227;23;20020;-88
2023/10/25 07:54:50;;;;;;;48.25;28.02;;;;;;;11.39;100.00;99851.69;5958133;23;20022;-87
2023/10/25 07:57:35;;;;;;;49.30;27.88;;;12.50;99.90;;;11.49;100.00;99851.00;5952207;23;20025;-87
2023/10/25 08:00:04;;;;;;;52.33;29.45;;;12.60;99.90;;;11.58;100.00;99854.84;5906008;23;20427;-87
2023/10/25 08:02:41;;;;;;;59.53;31.92;;;12.70;99.90;;;11.64;100.00;99850.94;5876599;23;20086;-88
2023/10/25 08:05:34;;;;;;;66.97;34.65;;;;;;;11.72;100.00;99856.56;5806927;23;20020;-88
2023/10/25 08:08:14;;;;;;;58.50;32.17;;;12.80;99.90;;;11.82;100.00;99848.91;5929484;23;20023;-88
2023/10/25 08:11:16;;;;;;;64.10;32.70;;;;;;;11.84;100.00;99857.59;5876484;24;20099;-89
2023/10/25 08:13:53;;;;;;;50.97;30.25;;;;;;;11.86;100.00;99853.88;6001722;23;20018;-88
2023/10/25 08:17:02;;;;;;;49.40;28.45;;;13.00;99.90;;;11.89;100.00;99858.97;5995555;23;20536;-88
2023/10/25 08:19:32;;;;;;;46.92;28.05;;;;;;;11.95;100.00;99859.53;6026546;23;20034;-88
2023/10/25 08:22:23;;;;;;;43.67;26.95;;;;;;;11.84;100.00;99863.69;5975666;23;20040;-88
2023/10/25 08:25:21;;;;;;;30.65;22.38;;;13.00;99.90;;;11.67;100.00;99861.31;5966317;23;20015;-87
2023/10/25 08:28:04;;;;;;;33.63;24.13;;;12.90;99.90;;;11.62;100.00;99863.38;5901191;23;20051;-88
2023/10/25 08:30:42;;;;;;;36.40;25.42;;;12.90;99.90;;;11.68;100.00;99866.50;5946071;23;20023;-87
2023/10/25 08:35:43;;;;;;;34.38;24.40;;;;;;;11.64;100.00;99869.41;5982933;23;20022;-86
2023/10/25 08:38:10;;;;;;;37.38;25.00;;;;;;;11.62;100.00;99864.25;6086514;23;20009;-89
2023/10/25 08:40:52;;;;;;;29.98;22.52;;;;;;;11.60;100.00;99874.06;6063788;23;20473;-86
2023/10/25 08:43:27;;;;;;;38.65;25.90;;;;;;;11.63;100.00;99862.44;6010009;23;20018;-86
2023/10/25 08:45:56;;;;;;;40.70;28.07;;;12.70;99.90;;;11.70;100.00;99871.66;6093785;23;20073;-87
2023/10/25 08:48:32;;;;;;;46.22;30.02;;;12.80;99.90;;;11.78;100.00;99872.00;6002817;23;20005;-86
2023/10/25 08:51:08;;;;;;;53.60;28.63;;;12.90;99.90;;;11.86;100.00;99874.16;5944914;23;20072;-88
2023/10/25 08:53:36;;;;;;;39.75;26.75;;;;;;;11.82;100.00;99883.22;6021162;23;20033;-87
2023/10/25 08:56:03;;;;;;;32.90;24.73;;;12.90;99.90;;;11.83;100.00;99874.34;6035164;23;20066;-86
2023/10/25 08:58:55;;;;;;;38.00;25.90;;;;;;;11.86;100.00;99874.16;6016821;23;20016;-86
2023/10/25 09:01:20;;;;;;;33.80;23.85;;;13.00;99.90;;;11.94;100.00;99885.06;5891337;23;20756;-87
2023/10/25 09:04:13;;;;;;;33.92;25.27;;;;;;;12.07;100.00;99882.47;5897978;23;20058;-87
2023/10/25 09:06:59;;;;;;;37.42;26.92;;;;;;;12.09;100.00;99881.44;5905170;23;20075;-87
2023/10/25 09:09:46;;;;;;;36.35;26.73;;;13.30;99.90;;;12.19;100.00;99886.09;5870432;24;20013;-87
2023/10/25 09:12:51;;;;;;;38.83;24.20;;;13.30;99.90;;;12.27;100.00;99883.78;5870106;24;20421;-87
2023/10/25 09:16:29;;;;;;;36.28;25.02;;;13.30;99.90;;;12.35;100.00;99888.53;5873337;24;20018;-87
2023/10/25 09:19:10;;;;;;;28.63;20.13;;;13.40;99.90;;;12.38;100.00;99886.53;5847936;24;20021;-87
2023/10/25 09:21:36;;;;;;;27.92;20.80;;;;;;;12.41;100.00;99885.50;5854241;24;20024;-87
2023/10/25 09:24:11;;;;;;;33.92;22.13;;;13.50;99.90;;;12.41;100.00;99891.59;5844640;24;20018;-87
2023/10/25 09:26:40;;;;;;;36.40;23.85;;;;;;;12.46;100.00;99884.25;5841650;24;20411;-87
2023/10/25 09:33:06;;;;;;;37.22;24.80;;;13.60;99.90;;;12.48;100.00;99882.34;5765454;24;20077;-87
2023/10/25 09:36:01;;;;;;;35.33;24.10;;;13.60;99.90;;;12.49;100.00;99878.75;5724431;24;20023;-87
2023/10/25 09:39:04;;;;;;;;;;;;;;;;;;;;;
2023/10/25 09:41:39;;;;;;;41.30;24.13;;;13.60;99.90;;;12.49;100.00;99884.03;5766786;24;20953;-87
2023/10/25 09:44:45;;;;;;;37.30;23.10;;;13.60;99.90;;;12.50;100.00;99879.56;5796650;24;20460;-86
2023/10/25 09:50:25;;;;;;;39.50;24.90;;;13.70;99.90;;;12.50;100.00;99884.84;5773306;24;20041;-80
2023/10/25 09:53:08;;;;;;;34.63;21.30;;;13.60;99.90;;;12.38;100.00;99885.72;5898605;24;20021;-82
2023/10/25 09:55:44;;;;;;;33.30;21.35;;;13.50;99.90;;;12.28;100.00;99873.09;5878224;24;20418;-80
2023/10/25 09:58:18;;;;;;;30.95;19.90;;;13.40;99.90;;;12.10;100.00;99879.63;5883895;24;20016;-81
2023/10/25 10:00:48;;;;;;;35.47;22.05;;;13.30;99.90;;;12.01;100.00;99878.44;5923506;24;20095;-80
2023/10/25 10:03:47;;;;;;;33.95;19.67;;;13.20;99.90;;;11.98;100.00;99873.34;5922864;24;20024;-81
2023/10/25 10:07:09;;;;;;;35.08;21.85;;;13.10;99.90;;;11.86;100.00;99880.25;5945654;24;20024;-81
2023/10/25 10:10:07;;;;;;;34.35;19.58;;;13.00;99.90;;;11.72;100.00;99871.56;5999125;23;20073;-81
2023/10/25 10:12:43;;;;;;;30.92;19.70;;;13.00;99.90;;;11.74;100.00;99869.66;6069101;23;20013;-80
2023/10/25 10:15:14;;;;;;;29.25;19.13;;;12.90;99.90;;;11.74;100.00;99862.59;6060204;23;20020;-86
2023/10/25 10:21:07;;;;;;;28.13;18.83;;;13.00;99.90;;;11.89;100.00;99845.78;5859092;24;20013;-86
2023/10/25 10:23:49;;;;;;;29.40;20.35;;;;;;;11.95;100.00;99844.56;5862868;24;20024;-87
2023/10/25 10:29:33;;;;;;;29.73;18.73;;;13.20;99.90;;;12.25;100.00;99844.28;5804177;24;20061;-87
2023/10/25 10:32:15;;;;;;;33.25;20.20;;;;;;;12.21;100.00;99837.53;5840400;24;20013;-86
2023/10/25 10:35:22;;;;;;;33.90;20.63;;;13.30;99.90;;;12.24;100.00;99839.09;5779597;24;20030;-86
2023/10/25 10:37:55;;;;;;;37.13;20.27;;;13.30;99.90;;;12.23;100.00;99834.78;5761749;24;20460;-87
2023/10/25 10:40:33;;;;;;;31.40;18.50;;;13.30;99.90;;;12.22;100.00;99833.09;5773749;24;20050;-86
2023/10/25 10:43:24;;;;;;;30.98;19.50;;;13.20;99.90;;;12.08;100.00;99824.31;5779498;24;21652;-86
2023/10/25 10:45:54;;;;;;;33.30;20.48;;;13.20;99.90;;;12.08;100.00;99824.31;5752600;24;20024;-86
2023/10/25 10:48:34;;;;;;;32.17;18.83;;;13.30;99.90;;;12.26;100.00;99824.00;5760016;24;20397;-86
2023/10/25 10:51:11;;;;;;;29.52;19.00;;;13.30;99.90;;;12.44;100.00;99822.78;5752292;24;20026;-87
2023/10/25 10:54:12;;;;;;;33.28;19.13;;;13.50;99.90;;;12.50;100.00;99822.34;5798292;24;20033;-86
2023/10/25 10:57:02;;;;;;;35.55;21.73;;;;;;;12.29;100.00;99824.66;5728118;24;20018;-86
2023/10/25 10:59:31;;;;;;;37.08;21.88;;;13.50;99.90;;;12.36;100.00;99826.88;5864601;23;20418;-86
2023/10/25 11:02:10;;;;;;;36.80;21.27;;;13.40;99.90;;;12.35;100.00;99828.66;5850869;24;20016;-86
2023/10/25 11:04:45;;;;;;;36.40;21.30;;;;;;;12.42;100.00;99818.53;5858739;24;20025;-87
2023/10/25 11:07:13;;;;;;;36.30;20.75;;;;;;;12.47;100.00;99822.53;5919649;23;20016;-87
2023/10/25 11:13:02;;;;;;;34.88;20.92;;;13.50;99.90;;;12.53;100.00;99821.28;5952149;23;20375;-86
2023/10/25 11:15:48;;;;;;;35.08;19.33;;;;;;;12.46;100.00;99812.09;5953642;23;20627;-87
2023/10/25 11:18:37;;;;;;;;;;;;;;;;;;;;;
2023/10/25 11:21:03;;;;;;;38.38;21.63;;;;;;;12.37;100.00;99808.28;5970419;23;20322;-84
2023/10/25 11:23:30;;;;;;;30.35;18.88;;;;;;;12.41;100.00;99811.56;5953107;23;20030;-86
2023/10/25 11:26:03;;;;;;;26.35;17.48;;;13.50;99.90;;;12.45;100.00;99816.53;5973041;23;20015;-85
2023/10/25 11:28:33;;;;;;;28.77;18.58;;;;;;;12.38;100.00;99817.06;5896632;23;20334;-86
2023/10/25 11:31:11;;;;;;;33.65;21.00;;;;;;;12.20;100.00;99821.78;5939828;23;20015;-88
2023/10/25 11:34:03;;;;;;;29.77;19.48;;;13.30;99.90;;;12.09;100.00;99819.88;5959907;23;20022;-85
2023/10/25 11:36:33;;;;;;;31.15;18.67;;;;;;;12.04;100.00;99820.19;5932790;23;20023;-86
2023/10/25 11:39:12;;;;;;;30.92;20.20;;;;;;;12.01;100.00;99819.56;5956760;23;20019;-86
2023/10/25 11:41:40;;;;;;;29.30;18.73;;;13.10;99.90;;;12.02;100.00;99814.16;5922373;23;20015;-86
2023/10/25 11:44:30;;;;;;;26.50;18.35;;;;;;;12.03;100.00;99818.50;5923067;23;20012;-85
2023/10/25 11:47:08;;;;;;;26.95;17.42;;;;;;;12.09;100.00;99825.16;5963105;23;20100;-87
2023/10/25 11:49:35;;;;;;;23.27;16.30;;;13.00;99.90;;;12.14;100.00;99817.78;6018698;23;20009;-86
2023/10/25 11:52:01;;;;;;;22.85;14.85;;;;;;;12.20;100.00;99813.88;6037846;23;20037;-87
2023/10/25 11:55:11;;;;;;;24.10;14.68;;;13.20;99.90;;;12.10;100.00;99819.78;6058143;23;20025;-86
2023/10/25 12:00:32;;;;;;;22.65;15.85;;;;;;;11.89;99.84;99821.22;5921259;23;20352;-87
2023/10/25 12:02:58;;;;;;;25.73;16.50;;;;;;;11.85;100.00;99815.25;5940003;23;20027;-86
2023/10/25 12:05:24;;;;;;;22.85;15.50;;;;;;;11.65;100.00;99811.31;5902486;23;20071;-86
2023/10/25 12:08:10;;;;;;;25.35;16.80;;;13.00;99.90;;;11.75;100.00;99805.41;5897044;23;20102;-86
2023/10/25 12:10:46;;;;;;;;;;;;;;;;;;;;;
2023/10/25 12:13:21;;;;;;;22.85;14.77;;;;;;;11.96;100.00;99809.28;5909289;23;20336;-86
2023/10/25 12:15:47;;;;;;;17.73;13.75;;;;;;;11.99;100.00;99810.91;5946318;23;20027;-86
2023/10/25 12:18:22;;;;;;;22.33;15.57;;;13.20;99.90;;;12.15;99.74;99816.00;5920014;23;20012;-86